createdAt,value
2019-06-01T00:01:19.467Z,1.80
2019-06-01T00:03:50.230Z,1.87
2019-06-01T00:06:20.770Z,2.20
2019-06-01T00:08:51.018Z,2.20
2019-06-01T00:11:21.309Z,1.90
2019-06-01T00:13:51.566Z,2.30
2019-06-01T00:16:22.891Z,2.27
2019-06-01T00:18:53.222Z,2.00
2019-06-01T00:21:23.347Z,2.10
2019-06-01T00:23:53.835Z,2.03
2019-06-01T00:26:24.241Z,1.60
2019-06-01T00:28:55.983Z,1.43
2019-06-01T00:31:26.302Z,2.00
2019-06-01T00:33:56.692Z,2.00
2019-06-01T00:36:27.088Z,1.67
2019-06-01T00:38:59.523Z,2.10
2019-06-01T00:41:31.166Z,2.00
2019-06-01T00:44:03.231Z,1.83
2019-06-01T00:46:33.566Z,2.20
2019-06-01T00:49:03.718Z,2.07
2019-06-01T00:51:33.972Z,1.90
2019-06-01T00:54:04.400Z,2.03
2019-06-01T00:56:34.542Z,1.90
2019-06-01T00:59:04.745Z,2.00
2019-06-01T01:01:34.893Z,1.63
2019-06-01T01:04:05.373Z,1.80
2019-06-01T01:06:35.528Z,1.87
2019-06-01T01:09:08.547Z,1.70
2019-06-01T01:11:38.666Z,1.80
2019-06-01T01:14:11.916Z,2.10
2019-06-01T01:16:42.038Z,2.20
2019-06-01T01:19:12.294Z,2.43
2019-06-01T01:21:42.619Z,2.20
2019-06-01T01:24:12.858Z,1.77
2019-06-01T01:26:44.639Z,1.80
2019-06-01T01:29:14.807Z,1.77
2019-06-01T01:31:45.032Z,2.20
2019-06-01T01:34:15.261Z,1.93
2019-06-01T01:36:45.409Z,1.80
2019-06-01T01:39:15.660Z,1.40
2019-06-01T01:41:45.781Z,2.17
2019-06-01T01:44:15.926Z,2.30
2019-06-01T01:46:46.428Z,1.77
2019-06-01T01:49:16.688Z,2.03
2019-06-01T01:51:46.798Z,2.00
2019-06-01T01:54:18.860Z,1.83
2019-06-01T01:56:49.934Z,3.00
2019-06-01T01:59:22.853Z,2.60
2019-06-01T02:01:53.083Z,1.90
2019-06-01T02:04:23.494Z,1.93
2019-06-01T02:06:53.962Z,2.10
2019-06-01T02:09:24.153Z,2.23
2019-06-01T02:11:55.414Z,2.00
2019-06-01T02:14:25.587Z,1.77
2019-06-01T02:16:56.240Z,1.83
2019-06-01T02:19:26.563Z,2.20
2019-06-01T02:21:56.796Z,2.00
2019-06-01T02:24:27.007Z,2.10
2019-06-01T02:26:57.280Z,2.37
2019-06-01T02:29:27.493Z,2.10
2019-06-01T02:31:59.092Z,2.07
2019-06-01T02:34:29.763Z,2.10
2019-06-01T02:37:00.297Z,2.37
2019-06-01T02:39:30.485Z,2.20
2019-06-01T02:42:01.450Z,2.57
2019-06-01T02:44:33.449Z,2.30
2019-06-01T02:47:04.515Z,2.17
2019-06-01T02:49:35.696Z,1.83
2019-06-01T02:52:06.333Z,1.77
2019-06-01T02:54:37.003Z,2.37
2019-06-01T02:57:08.132Z,2.20
2019-06-01T02:59:38.487Z,2.00
2019-06-01T03:02:12.377Z,2.10
2019-06-01T03:04:40.897Z,2.23
2019-06-01T03:07:10.995Z,1.63
2019-06-01T03:09:41.212Z,2.00
2019-06-01T03:12:14.110Z,1.90
2019-06-01T03:14:48.413Z,1.83
2019-06-01T03:17:19.123Z,2.15
2019-06-01T03:19:50.828Z,2.80
2019-06-01T03:22:22.820Z,2.00
2019-06-01T03:24:54.127Z,2.20
2019-06-01T03:27:24.450Z,2.52
2019-06-01T03:29:56.902Z,2.27
2019-06-01T03:32:36.335Z,2.33
2019-06-01T03:35:00.535Z,2.30
2019-06-01T03:37:30.926Z,2.97
2019-06-01T03:40:01.435Z,3.30
2019-06-01T03:42:31.756Z,2.10
2019-06-01T03:45:01.933Z,2.20
2019-06-01T03:47:32.195Z,1.87
2019-06-01T03:50:04.756Z,2.30
2019-06-01T03:52:35.107Z,2.13
2019-06-01T03:55:05.963Z,2.10
2019-06-01T03:57:36.263Z,2.00
2019-06-01T04:00:07.163Z,2.10
2019-06-01T04:02:37.861Z,1.80
2019-06-01T04:05:09.276Z,1.97
2019-06-01T04:07:40.318Z,2.50
2019-06-01T04:10:11.860Z,2.10
2019-06-01T04:12:42.587Z,2.10
2019-06-01T04:15:16.524Z,1.97
2019-06-01T04:17:45.297Z,2.30
2019-06-01T04:20:15.986Z,1.83
2019-06-01T04:22:46.294Z,1.70
2019-06-01T04:25:16.564Z,2.20
2019-06-01T04:27:46.900Z,2.10
2019-06-01T04:30:17.741Z,1.70
2019-06-01T04:32:50.283Z,1.60
2019-06-01T04:35:20.537Z,1.87
2019-06-01T04:37:51.135Z,1.60
2019-06-01T04:40:21.408Z,2.10
2019-06-01T04:42:51.682Z,1.50
2019-06-01T04:45:22.313Z,2.17
2019-06-01T04:47:52.563Z,2.00
2019-06-01T04:50:23.133Z,1.60
2019-06-01T04:52:53.466Z,2.10
2019-06-01T04:55:23.601Z,2.20
2019-06-01T04:57:53.888Z,2.30
2019-06-01T05:00:27.868Z,2.40
2019-06-01T05:03:04.919Z,2.10
2019-06-01T05:05:28.074Z,1.90
2019-06-01T05:07:58.479Z,1.97
2019-06-01T05:10:28.706Z,2.30
2019-06-01T05:12:59.225Z,1.53
2019-06-01T05:15:29.533Z,2.03
2019-06-01T05:17:59.741Z,2.33
2019-06-01T05:20:30.439Z,2.33
2019-06-01T05:23:00.697Z,2.13
2019-06-01T05:25:30.912Z,2.22
2019-06-01T05:28:01.529Z,2.27
2019-06-01T05:30:31.993Z,1.87
2019-06-01T05:33:03.058Z,1.80
2019-06-01T05:35:33.659Z,1.90
2019-06-01T05:38:03.978Z,1.77
2019-06-01T05:40:34.325Z,1.70
2019-06-01T05:43:04.481Z,1.90
2019-06-01T05:45:35.756Z,2.10
2019-06-01T05:48:05.995Z,2.40
2019-06-01T05:50:36.198Z,2.40
2019-06-01T05:53:06.492Z,2.50
2019-06-01T05:55:36.877Z,1.87
2019-06-01T05:58:07.308Z,1.43
2019-06-01T06:00:40.296Z,2.27
2019-06-01T06:03:12.871Z,2.13
2019-06-01T06:05:43.058Z,2.50
2019-06-01T06:08:16.177Z,2.27
2019-06-01T06:10:46.620Z,2.10
2019-06-01T06:13:17.429Z,2.27
2019-06-01T06:15:47.622Z,1.90
2019-06-01T06:18:17.946Z,1.73
2019-06-01T06:20:48.202Z,3.00
2019-06-01T06:23:18.527Z,1.97
2019-06-01T06:25:48.661Z,2.07
2019-06-01T06:28:18.885Z,1.97
2019-06-01T06:30:49.077Z,1.60
2019-06-01T06:33:21.441Z,2.10
2019-06-01T06:35:52.085Z,2.00
2019-06-01T06:38:22.298Z,1.70
2019-06-01T06:40:52.787Z,1.77
2019-06-01T06:43:32.250Z,1.67
2019-06-01T06:45:55.554Z,1.57
2019-06-01T06:48:28.907Z,1.60
2019-06-01T06:50:59.573Z,2.10
2019-06-01T06:53:35.158Z,1.60
2019-06-01T06:56:01.599Z,1.63
2019-06-01T06:58:31.988Z,1.50
2019-06-01T07:01:02.192Z,1.50
2019-06-01T07:03:32.405Z,1.37
2019-06-01T07:06:02.608Z,1.20
2019-06-01T07:08:33.312Z,1.30
2019-06-01T07:11:06.751Z,1.40
2019-06-01T07:13:37.005Z,1.33
2019-06-01T07:16:07.230Z,1.27
2019-06-01T07:18:37.410Z,1.10
2019-06-01T07:21:07.615Z,1.20
2019-06-01T07:23:37.945Z,1.10
2019-06-01T07:26:08.196Z,1.20
2019-06-01T07:28:38.366Z,0.80
2019-06-01T07:31:08.575Z,0.90
2019-06-01T07:33:38.880Z,1.00
2019-06-01T07:36:09.306Z,0.90
2019-06-01T07:38:42.703Z,0.80
2019-06-01T07:41:12.933Z,0.80
2019-06-01T07:43:43.217Z,1.05
2019-06-01T07:46:13.449Z,1.05
2019-06-01T07:48:43.763Z,1.00
2019-06-01T07:51:14.074Z,0.60
2019-06-01T07:53:44.643Z,0.57
2019-06-01T07:56:15.794Z,0.70
2019-06-01T07:58:46.587Z,0.77
2019-06-01T08:01:17.092Z,0.70
2019-06-01T08:03:47.656Z,0.80
2019-06-01T08:06:18.042Z,0.68
2019-06-01T08:08:48.788Z,0.65
2019-06-01T08:11:21.264Z,0.80
2019-06-01T08:13:54.314Z,0.75
2019-06-01T08:16:25.905Z,1.00
2019-06-01T08:18:56.658Z,0.80
2019-06-01T08:21:28.096Z,0.60
2019-06-01T08:23:58.985Z,0.93
2019-06-01T08:26:30.631Z,0.70
2019-06-01T08:29:01.272Z,0.68
2019-06-01T08:31:34.068Z,0.60
2019-06-01T08:34:04.560Z,0.50
2019-06-01T08:36:35.469Z,0.50
2019-06-01T08:39:07.180Z,0.60
2019-06-01T08:41:37.617Z,0.50
2019-06-01T08:44:09.745Z,0.68
2019-06-01T08:46:40.193Z,0.40
2019-06-01T08:49:10.790Z,0.50
2019-06-01T08:51:41.169Z,0.60
2019-06-01T08:59:10.556Z,0.60
2019-06-01T09:04:11.578Z,0.50
2019-06-01T09:06:42.024Z,0.60
2019-06-01T09:09:12.362Z,0.40
2019-06-01T09:16:40.876Z,0.60
2019-06-01T09:19:13.686Z,0.40
2019-06-01T09:21:44.178Z,0.30
2019-06-01T09:24:14.342Z,0.40
2019-06-01T09:26:44.597Z,1.10
2019-06-01T09:29:14.898Z,2.70
2019-06-01T09:31:45.139Z,0.40
2019-06-01T09:34:16.270Z,0.40
2019-06-01T09:36:46.536Z,0.30
2019-06-01T09:39:16.771Z,0.40
2019-06-01T09:41:47.535Z,0.37
2019-06-01T09:44:17.858Z,0.40
2019-06-01T09:46:48.022Z,0.40
2019-06-01T09:49:19.240Z,0.40
2019-06-01T09:51:49.359Z,0.30
2019-06-01T09:54:19.793Z,0.30
2019-06-01T09:56:50.123Z,0.30
2019-06-01T09:59:20.483Z,0.30
2019-06-01T10:01:51.037Z,0.20
2019-06-01T10:04:21.618Z,0.30
2019-06-01T10:09:21.055Z,0.20
2019-06-01T10:11:51.373Z,0.30
2019-06-01T10:14:21.918Z,0.40
2019-06-01T10:16:52.391Z,0.20
2019-06-01T10:19:22.663Z,0.30
2019-06-01T10:21:52.847Z,0.20
2019-06-01T10:24:23.082Z,0.30
2019-06-01T10:26:54.447Z,0.90
2019-06-01T10:29:26.316Z,0.33
2019-06-01T10:31:56.652Z,0.30
2019-06-01T10:34:26.810Z,0.30
2019-06-01T10:36:57.419Z,0.30
2019-06-01T10:39:28.038Z,0.30
2019-06-01T10:41:58.498Z,0.30
2019-06-01T10:44:28.854Z,0.40
2019-06-01T10:46:59.116Z,0.30
2019-06-01T10:49:29.462Z,0.30
2019-06-01T10:52:01.153Z,0.40
2019-06-01T10:54:32.786Z,0.40
2019-06-01T10:57:03.405Z,0.90
2019-06-01T10:59:34.329Z,1.10
2019-06-01T11:02:07.756Z,0.60
2019-06-01T11:04:38.953Z,0.65
2019-06-01T11:07:10.322Z,1.20
2019-06-01T11:09:41.164Z,0.60
2019-06-01T11:12:11.560Z,1.03
2019-06-01T11:14:43.230Z,0.70
2019-06-01T11:17:14.136Z,1.40
2019-06-01T11:19:44.707Z,0.60
2019-06-01T11:22:15.011Z,0.67
2019-06-01T11:24:45.361Z,0.80
2019-06-01T11:27:15.599Z,0.65
2019-06-01T11:29:51.223Z,0.70
2019-06-01T11:32:17.964Z,0.80
2019-06-01T11:34:48.194Z,0.80
2019-06-01T11:37:18.347Z,0.60
2019-06-01T11:39:48.717Z,0.70
2019-06-01T11:42:20.162Z,0.83
2019-06-01T11:44:50.779Z,0.80
2019-06-01T11:47:24.685Z,1.10
2019-06-01T11:49:56.724Z,0.63
2019-06-01T11:52:27.113Z,0.70
2019-06-01T11:54:57.445Z,1.03
2019-06-01T11:57:29.199Z,0.70
2019-06-01T12:00:00.719Z,0.70
2019-06-01T12:02:31.279Z,1.00
2019-06-01T12:05:02.600Z,0.90
2019-06-01T12:07:39.863Z,0.83
2019-06-01T12:10:12.457Z,0.80
2019-06-01T12:12:44.186Z,0.80
2019-06-01T12:15:14.895Z,0.90
2019-06-01T12:17:45.253Z,1.10
2019-06-01T12:27:04.044Z,0.80
2019-06-01T12:29:35.544Z,1.27
2019-06-01T12:32:09.459Z,1.03
2019-06-01T12:34:44.027Z,1.00
2019-06-01T12:37:15.536Z,1.60
2019-06-01T12:39:52.220Z,0.90
2019-06-01T12:42:19.074Z,0.63
2019-06-01T12:44:50.252Z,0.60
2019-06-01T12:47:21.152Z,0.73
2019-06-01T12:49:52.708Z,1.00
2019-06-01T12:52:24.315Z,1.43
2019-06-01T12:54:55.349Z,1.00
2019-06-01T12:57:26.410Z,2.83
2019-06-01T12:59:57.434Z,0.63
2019-06-01T13:02:28.650Z,1.20
2019-06-01T13:04:59.168Z,1.47
2019-06-01T13:07:29.483Z,0.93
2019-06-01T13:09:59.789Z,0.80
2019-06-01T13:12:29.970Z,0.80
2019-06-01T13:15:00.228Z,0.70
2019-06-01T13:17:30.987Z,0.80
2019-06-01T13:20:01.439Z,1.43
2019-06-01T13:22:33.198Z,0.70
2019-06-01T13:25:04.383Z,0.90
2019-06-01T13:27:34.646Z,0.83
2019-06-01T13:30:05.853Z,0.60
2019-06-01T13:32:36.322Z,1.90
2019-06-01T13:35:07.201Z,0.97
2019-06-01T13:37:37.473Z,1.97
2019-06-01T13:40:08.081Z,0.67
2019-06-01T13:42:38.365Z,0.77
2019-06-01T13:45:09.092Z,0.70
2019-06-01T13:47:39.634Z,0.63
2019-06-01T13:50:09.943Z,1.43
2019-06-01T13:52:40.274Z,0.77
2019-06-01T13:55:10.670Z,1.00
2019-06-01T13:57:41.085Z,0.60
2019-06-01T14:00:15.860Z,1.67
2019-06-01T14:02:49.573Z,1.00
2019-06-01T14:05:17.757Z,0.80
2019-06-01T14:07:49.382Z,0.60
2019-06-01T14:10:20.010Z,0.60
2019-06-01T14:12:51.434Z,0.70
2019-06-01T14:15:22.043Z,0.60
2019-06-01T14:20:22.722Z,0.80
2019-06-01T14:25:22.199Z,0.60
2019-06-01T14:27:52.554Z,2.50
2019-06-01T14:32:54.463Z,0.40
2019-06-01T14:35:24.943Z,0.70
2019-06-01T14:45:23.997Z,1.00
2019-06-01T14:47:55.528Z,0.90
2019-06-01T14:55:24.460Z,0.80
2019-06-01T14:57:55.919Z,0.85
2019-06-01T15:00:26.809Z,0.73
2019-06-01T15:05:27.103Z,0.90
2019-06-01T15:07:59.100Z,0.60
2019-06-01T15:10:29.564Z,0.73
2019-06-01T15:13:02.992Z,0.57
2019-06-01T15:15:32.059Z,1.00
2019-06-01T15:18:05.406Z,0.87
2019-06-01T15:20:36.119Z,1.00
2019-06-01T15:23:08.312Z,0.70
2019-06-01T15:25:38.674Z,1.10
2019-06-01T15:28:08.973Z,1.00
2019-06-01T15:30:39.141Z,1.40
2019-06-01T15:33:09.430Z,0.93
2019-06-01T15:35:39.659Z,0.75
2019-06-01T15:38:10.433Z,0.90
2019-06-01T15:40:40.663Z,0.70
2019-06-01T15:43:10.970Z,0.90
2019-06-01T15:45:41.449Z,0.70
2019-06-01T15:48:12.095Z,0.60
2019-06-01T15:50:42.581Z,0.80
2019-06-01T15:53:12.900Z,0.83
2019-06-01T15:55:43.462Z,0.80
2019-06-01T15:58:13.945Z,0.80
2019-06-01T16:00:44.109Z,0.70
2019-06-01T16:03:14.484Z,0.70
2019-06-01T16:05:44.775Z,1.00
2019-06-01T16:08:15.070Z,0.90
2019-06-01T16:10:45.442Z,1.10
2019-06-01T16:13:17.408Z,1.03
2019-06-01T16:15:47.713Z,0.70
2019-06-01T16:18:19.794Z,0.70
2019-06-01T16:20:50.398Z,0.70
2019-06-01T16:23:20.762Z,0.80
2019-06-01T16:26:04.890Z,1.20
2019-06-01T16:28:23.104Z,0.63
2019-06-01T16:30:54.441Z,0.80
2019-06-01T16:33:24.689Z,0.70
2019-06-01T16:35:56.823Z,1.02
2019-06-01T16:38:27.197Z,0.70
2019-06-01T16:40:57.704Z,0.83
2019-06-01T16:43:28.202Z,0.70
2019-06-01T16:45:59.652Z,0.87
2019-06-01T16:48:30.407Z,0.90
2019-06-01T16:55:59.864Z,1.30
2019-06-01T16:58:30.429Z,0.90
2019-06-01T17:01:00.923Z,0.90
2019-06-01T17:03:31.181Z,0.70
2019-06-01T17:06:02.768Z,0.90
2019-06-01T17:08:33.319Z,0.90
2019-06-01T17:11:04.773Z,0.90
2019-06-01T17:13:35.358Z,1.43
2019-06-01T17:16:08.133Z,0.90
2019-06-01T17:18:38.706Z,1.10
2019-06-01T17:21:09.027Z,1.30
2019-06-01T17:23:39.327Z,1.30
2019-06-01T17:26:12.741Z,1.10
2019-06-01T17:28:43.394Z,0.70
2019-06-01T17:31:13.805Z,0.80
2019-06-01T17:33:44.079Z,1.10
2019-06-01T17:36:14.412Z,0.90
2019-06-01T17:41:13.899Z,0.80
2019-06-01T17:48:43.726Z,1.00
2019-06-01T17:51:14.628Z,1.00
2019-06-01T18:01:13.542Z,1.30
2019-06-01T18:03:44.204Z,2.50
2019-06-01T18:06:17.417Z,6.40
2019-06-01T18:08:50.279Z,2.03
2019-06-01T18:11:20.674Z,1.10
2019-06-01T18:13:51.242Z,1.13
2019-06-01T18:16:21.481Z,1.10
2019-06-01T18:18:52.009Z,1.20
2019-06-01T18:21:24.113Z,1.57
2019-06-01T18:23:54.725Z,1.20
2019-06-01T18:26:25.201Z,1.55
2019-06-01T18:28:55.655Z,1.40
2019-06-01T18:31:27.388Z,1.77
2019-06-01T18:33:57.780Z,1.23
2019-06-01T18:36:28.531Z,1.10
2019-06-01T18:38:58.827Z,1.40
2019-06-01T18:41:29.312Z,1.50
2019-06-01T18:44:00.080Z,1.70
2019-06-01T18:46:30.576Z,1.77
2019-06-01T18:49:01.384Z,2.13
2019-06-01T18:51:33.568Z,1.93
2019-06-01T18:54:04.344Z,1.77
2019-06-01T18:56:35.125Z,1.77
2019-06-01T18:59:06.895Z,2.50
2019-06-01T19:01:39.790Z,1.53
2019-06-01T19:04:11.818Z,3.60
2019-06-01T19:06:42.383Z,2.37
2019-06-01T19:09:13.502Z,3.77
2019-06-01T19:11:45.068Z,2.17
2019-06-01T19:14:16.115Z,2.00
2019-06-01T19:16:46.845Z,1.47
2019-06-01T19:19:18.569Z,1.73
2019-06-01T19:21:52.106Z,1.70
2019-06-01T19:24:23.750Z,1.80
2019-06-01T19:26:54.891Z,2.00
2019-06-01T19:29:27.879Z,1.90
2019-06-01T19:31:59.169Z,1.90
2019-06-01T19:34:30.110Z,1.80
2019-06-01T19:37:01.956Z,1.83
2019-06-01T19:39:33.189Z,1.50
2019-06-01T19:42:03.787Z,2.03
2019-06-01T19:44:36.636Z,2.07
2019-06-01T19:47:07.804Z,1.27
2019-06-01T19:49:39.000Z,1.50
2019-06-01T19:52:12.684Z,1.35
2019-06-01T19:54:43.620Z,1.60
2019-06-01T19:57:18.356Z,1.40
2019-06-01T19:59:48.135Z,1.50
2019-06-01T20:02:29.309Z,1.43
2019-06-01T20:04:51.143Z,1.33
2019-06-01T20:07:21.640Z,1.30
2019-06-01T20:09:53.225Z,1.80
2019-06-01T20:12:24.219Z,1.93
2019-06-01T20:14:54.995Z,3.53
2019-06-01T20:17:26.780Z,3.10
2019-06-01T20:19:57.525Z,2.60
2019-06-01T20:22:28.342Z,5.70
2019-06-01T20:24:59.030Z,3.27
2019-06-01T20:27:29.899Z,2.67
2019-06-01T20:30:00.317Z,3.53
2019-06-01T20:32:31.164Z,3.20
2019-06-01T20:35:03.627Z,2.33
2019-06-01T20:37:34.574Z,2.70
2019-06-01T20:40:05.727Z,2.17
2019-06-01T20:42:36.418Z,2.90
2019-06-01T20:45:08.931Z,1.87
2019-06-01T20:47:39.439Z,1.97
2019-06-01T20:50:10.629Z,1.90
2019-06-01T20:52:41.095Z,2.13
2019-06-01T20:55:12.880Z,2.02
2019-06-01T20:57:43.480Z,2.03
2019-06-01T21:00:17.597Z,1.97
2019-06-01T21:02:49.193Z,2.10
2019-06-01T21:05:20.004Z,2.10
2019-06-01T21:07:50.844Z,2.17
2019-06-01T21:10:22.363Z,2.80
2019-06-01T21:12:52.906Z,2.97
2019-06-01T21:15:23.451Z,2.40
2019-06-01T21:17:54.357Z,2.00
2019-06-01T21:20:29.994Z,2.20
2019-06-01T21:22:59.375Z,1.90
2019-06-01T21:25:29.924Z,2.27
2019-06-01T21:28:00.906Z,1.70
2019-06-01T21:30:33.967Z,2.00
2019-06-01T21:40:21.552Z,2.33
2019-06-01T21:43:06.931Z,1.67
2019-06-01T21:45:24.043Z,2.10
2019-06-01T21:47:55.061Z,2.20
2019-06-01T21:50:26.197Z,2.00
2019-06-01T21:52:56.563Z,2.20
2019-06-01T21:55:31.159Z,2.27
2019-06-01T21:58:01.798Z,1.87
2019-06-01T22:00:37.118Z,2.33
2019-06-01T22:03:09.291Z,1.87
2019-06-01T22:05:40.016Z,2.00
2019-06-01T22:08:12.313Z,2.27
2019-06-01T22:10:43.543Z,2.00
2019-06-01T22:13:18.830Z,2.50
2019-06-01T22:15:46.729Z,2.10
2019-06-01T22:18:17.598Z,2.10
2019-06-01T22:20:48.296Z,1.80
2019-06-01T22:23:19.743Z,2.37
2019-06-01T22:25:50.513Z,2.85
2019-06-01T22:28:24.494Z,2.20
2019-06-01T22:30:55.048Z,2.03
2019-06-01T22:33:26.558Z,2.37
2019-06-01T22:35:56.869Z,2.40
2019-06-01T22:38:27.841Z,2.50
2019-06-01T22:40:58.182Z,1.93
2019-06-01T22:43:42.211Z,2.50
2019-06-01T22:46:00.488Z,2.27
2019-06-01T22:48:31.055Z,3.10
2019-06-01T22:51:01.365Z,2.60
2019-06-01T22:53:32.433Z,2.23
2019-06-01T22:56:03.612Z,2.37
2019-06-01T22:58:35.850Z,2.93
2019-06-01T23:01:06.617Z,3.30
2019-06-01T23:03:37.057Z,2.77
2019-06-01T23:06:09.399Z,2.40
2019-06-01T23:08:39.263Z,1.87
2019-06-01T23:11:09.760Z,2.80
2019-06-01T23:13:52.807Z,2.73
2019-06-01T23:16:13.914Z,2.70
2019-06-01T23:18:44.039Z,2.50
2019-06-01T23:21:14.290Z,2.60
2019-06-01T23:23:44.549Z,2.87
2019-06-01T23:26:17.475Z,2.20
2019-06-01T23:28:48.965Z,2.77
2019-06-01T23:31:20.031Z,2.43
2019-06-01T23:33:50.177Z,2.80
2019-06-01T23:36:20.790Z,3.00
2019-06-01T23:38:51.282Z,1.90
2019-06-01T23:41:22.451Z,3.53
2019-06-01T23:44:10.259Z,2.80
2019-06-01T23:46:27.235Z,2.50
2019-06-01T23:48:57.443Z,2.80
2019-06-01T23:51:27.703Z,3.73
2019-06-01T23:53:58.220Z,3.27
2019-06-01T23:56:29.681Z,3.77
2019-06-01T23:58:59.975Z,2.57
